»·PEaware :: EAL3286 MYNN-KBFL

EAL3286 :: MYNN-KBFL

FLIGHT INFORMATION

Flight Status: Arrived
Operator:
Eastern Air Lines
More flights by this operator :: More flights under this callsign
Pilot: Alan J. (5709)
Aircraft: MCDONNELL-DOUGLAS DC-8-60
(DC86)
More flights by this aircraft type
Origin: MYNN Nassau Intl
Bahamas
Destination: KBFL Meadows
United States
More flights between these airports :: More routes between these airports
Route: +FOWEE BR49V DHP J75 RSW J614 SRQ Q100 LEV J86 ELP J50 TFD J212 DECAS J65 PMD FASTO2
File this flight plan on PilotEdge
Remarks:
Altitude:
(Current/Filed)
36,000ft
Speed:
(Current/Filed)
460kts
Departed: 24-Sep-17 02:07 PM
Arrived: 24-Sep-17 04:28 PM
Distance/Time
Traveled:
2226nm/2:21
Distance/Time
To Go:
Arrived

Flight Plot

Page will automatically refresh every two minutes.

Flight plan parsing failed; only flown route is shown


Map Options




Map Legend


Flown Route
Filed Route
Departure Airport
Arrival Airport
Navaid (VOR, NDB)
Fix

Horizontal Profiles

Position Reports

Time Latitude Longitude Heading Altitude Ground
Speed
24-Sep-17 14:10 30.840352 -101.898605 274 34047ft 429kts
24-Sep-17 14:11 30.854735 -102.032039 274 34968ft 410kts
24-Sep-17 14:12 30.868417 -102.160207 274 35879ft 394kts
24-Sep-17 14:13 30.881681 -102.286273 274 36027ft 398kts
24-Sep-17 14:14 30.895101 -102.414603 274 36012ft 403kts
24-Sep-17 14:15 30.908476 -102.543898 274 35983ft 406kts
24-Sep-17 14:16 30.919955 -102.655879 273 35939ft 408kts
24-Sep-17 14:17 30.933199 -102.786378 273 35914ft 409kts
24-Sep-17 14:18 30.946316 -102.917120 273 35912ft 408kts
24-Sep-17 14:19 30.971809 -103.045376 282 35917ft 410kts
24-Sep-17 14:20 31.006047 -103.170703 281 35912ft 406kts
24-Sep-17 14:21 31.039879 -103.294411 280 35908ft 401kts
24-Sep-17 14:22 31.073361 -103.417347 280 35907ft 398kts
24-Sep-17 14:23 31.106009 -103.537464 280 35897ft 397kts
24-Sep-17 14:24 31.139384 -103.660857 280 35908ft 408kts
24-Sep-17 14:25 31.173580 -103.787615 280 35909ft 414kts
24-Sep-17 14:26 31.207761 -103.914906 280 35906ft 414kts
24-Sep-17 14:27 31.241979 -104.042932 280 35905ft 415kts
24-Sep-17 14:28 31.275923 -104.170499 280 35903ft 415kts
24-Sep-17 14:29 31.309836 -104.298521 280 35902ft 414kts
24-Sep-17 14:30 31.343540 -104.426330 280 35902ft 414kts
24-Sep-17 14:31 31.377123 -104.554225 280 35932ft 414kts
24-Sep-17 14:32 31.410578 -104.682296 279 35966ft 414kts
24-Sep-17 14:33 31.443827 -104.810049 279 35965ft 415kts
24-Sep-17 14:34 31.477205 -104.938862 279 35965ft 415kts
24-Sep-17 14:35 31.510317 -105.067227 279 35962ft 413kts
24-Sep-17 14:36 31.543018 -105.194695 279 35964ft 411kts
24-Sep-17 14:37 31.575584 -105.322257 279 35973ft 410kts
24-Sep-17 14:38 31.607988 -105.449658 279 35976ft 410kts
24-Sep-17 14:39 31.640157 -105.576798 279 35975ft 409kts
24-Sep-17 14:40 31.672234 -105.704143 278 35987ft 410kts
24-Sep-17 14:41 31.704292 -105.831977 278 35986ft 410kts
24-Sep-17 14:42 31.736080 -105.959349 278 35984ft 410kts
24-Sep-17 14:43 31.767972 -106.087727 278 35983ft 410kts
24-Sep-17 14:44 31.799644 -106.215847 279 35982ft 410kts
24-Sep-17 14:45 31.820298 -106.344598 269 35982ft 401kts
24-Sep-17 14:46 31.830426 -106.474268 269 35979ft 401kts
24-Sep-17 14:47 31.840124 -106.604578 269 35976ft 401kts
24-Sep-17 14:48 31.849581 -106.733766 268 35991ft 401kts
24-Sep-17 14:49 31.858956 -106.863722 269 35997ft 402kts
24-Sep-17 14:50 31.868205 -106.994018 269 36013ft 403kts
24-Sep-17 14:51 31.877463 -107.125415 269 36021ft 405kts
24-Sep-17 14:52 31.886546 -107.256731 269 36018ft 406kts
24-Sep-17 14:53 31.895521 -107.388502 269 36013ft 406kts
24-Sep-17 14:54 31.904339 -107.520151 269 36006ft 406kts
24-Sep-17 14:55 31.913027 -107.651824 269 36004ft 405kts
24-Sep-17 14:56 31.923812 -107.783157 277 36008ft 412kts
24-Sep-17 14:57 31.953598 -107.912895 279 36015ft 414kts
24-Sep-17 14:58 31.984719 -108.043248 279 36013ft 415kts
24-Sep-17 14:59 32.015736 -108.173481 279 36013ft 415kts
24-Sep-17 15:00 32.046546 -108.303469 279 36028ft 414kts
24-Sep-17 15:01 32.077142 -108.433208 279 36047ft 414kts
24-Sep-17 15:02 32.107665 -108.562814 278 36018ft 417kts
24-Sep-17 15:03 32.137691 -108.691924 278 36038ft 420kts
24-Sep-17 15:04 32.157586 -108.818790 261 36079ft 386kts
24-Sep-17 15:05 32.194982 -108.938178 277 36062ft 397kts
24-Sep-17 15:06 32.224344 -109.067121 278 35987ft 414kts
24-Sep-17 15:07 32.254510 -109.198803 279 35948ft 420kts
24-Sep-17 15:08 32.286035 -109.331614 280 35937ft 423kts
24-Sep-17 15:09 32.318621 -109.465199 280 35929ft 424kts
24-Sep-17 15:10 32.350922 -109.598292 280 35928ft 424kts
24-Sep-17 15:11 32.382858 -109.730563 280 35938ft 424kts
24-Sep-17 15:12 32.415023 -109.864389 279 35936ft 424kts
24-Sep-17 15:13 32.447089 -109.998527 279 35935ft 425kts
24-Sep-17 15:14 32.478939 -110.132434 280 35934ft 425kts
24-Sep-17 15:15 32.510642 -110.266392 279 35935ft 424kts
24-Sep-17 15:16 32.542307 -110.400945 279 35940ft 424kts
24-Sep-17 15:17 32.573654 -110.534745 279 35934ft 419kts
24-Sep-17 15:18 32.604032 -110.665202 279 35941ft 411kts
24-Sep-17 15:19 32.634155 -110.795237 279 35942ft 409kts
24-Sep-17 15:20 32.663858 -110.924209 279 35938ft 407kts
24-Sep-17 15:21 32.693496 -111.053643 280 35936ft 407kts
24-Sep-17 15:22 32.722932 -111.182525 280 35934ft 406kts
24-Sep-17 15:23 32.752221 -111.311378 280 35933ft 405kts
24-Sep-17 15:24 32.781256 -111.440002 280 35932ft 405kts
24-Sep-17 15:25 32.810177 -111.568704 280 35931ft 405kts
24-Sep-17 15:26 32.838962 -111.697546 280 35935ft 405kts
24-Sep-17 15:27 32.867701 -111.826790 280 35924ft 406kts
24-Sep-17 15:28 32.912913 -111.949425 298 35927ft 418kts
24-Sep-17 15:29 32.981221 -112.060886 300 35921ft 420kts
24-Sep-17 15:30 33.050805 -112.172375 299 35923ft 419kts
24-Sep-17 15:31 33.107789 -112.263939 298 35920ft 417kts
24-Sep-17 15:32 33.187518 -112.392623 298 35913ft 414kts
24-Sep-17 15:33 33.256620 -112.504432 298 35905ft 423kts
24-Sep-17 15:34 33.326286 -112.617419 298 35898ft 423kts
24-Sep-17 15:35 33.383964 -112.711270 298 35912ft 424kts
24-Sep-17 15:36 33.449201 -112.826602 283 35902ft 407kts
24-Sep-17 15:37 33.482681 -112.977738 279 35908ft 404kts
24-Sep-17 15:38 33.503692 -113.086280 279 35907ft 404kts
24-Sep-17 15:39 33.528726 -113.217150 279 35905ft 405kts
24-Sep-17 15:40 33.553511 -113.348001 279 35903ft 405kts
24-Sep-17 15:41 33.578147 -113.478870 279 35902ft 404kts
24-Sep-17 15:42 33.602672 -113.610030 279 35918ft 404kts
24-Sep-17 15:43 33.626919 -113.740608 279 35967ft 404kts
24-Sep-17 15:44 33.651153 -113.871878 279 35975ft 405kts
24-Sep-17 15:45 33.675265 -114.003028 279 35973ft 405kts
24-Sep-17 15:46 33.699253 -114.134544 279 35970ft 405kts
24-Sep-17 15:47 33.723116 -114.266061 279 35969ft 405kts
24-Sep-17 15:48 33.746781 -114.397346 279 35967ft 405kts
24-Sep-17 15:49 33.770241 -114.528710 277 35964ft 404kts
24-Sep-17 15:50 33.779828 -114.661221 271 35970ft 401kts
24-Sep-17 15:51 33.787593 -114.794666 271 35976ft 402kts
24-Sep-17 15:52 33.795162 -114.928553 271 35974ft 403kts
24-Sep-17 15:53 33.802423 -115.062065 272 35970ft 403kts
24-Sep-17 15:54 33.809713 -115.196942 274 35969ft 406kts
24-Sep-17 15:55 33.817055 -115.331925 274 35952ft 408kts
24-Sep-17 15:56 33.829442 -115.467256 287 35930ft 408kts
24-Sep-17 15:57 33.868278 -115.594748 290 35928ft 409kts
24-Sep-17 15:58 33.908438 -115.720211 289 35939ft 410kts
24-Sep-17 15:59 33.949416 -115.848316 289 35962ft 410kts
24-Sep-17 16:00 33.990107 -115.975991 289 36009ft 410kts
24-Sep-17 16:01 34.030677 -116.103985 289 36051ft 410kts
24-Sep-17 16:02 34.071074 -116.231830 289 36067ft 411kts
24-Sep-17 16:03 34.111311 -116.359755 289 36009ft 411kts
24-Sep-17 16:04 34.151530 -116.488238 289 35997ft 411kts
24-Sep-17 16:05 34.189073 -116.608618 289 35972ft 412kts
24-Sep-17 16:06 34.229067 -116.737421 289 35967ft 412kts
24-Sep-17 16:07 34.269010 -116.866622 288 35979ft 412kts
24-Sep-17 16:08 34.308765 -116.996325 290 35986ft 413kts
24-Sep-17 16:09 34.349041 -117.127570 292 35391ft 432kts
24-Sep-17 16:10 34.390192 -117.261779 292 32888ft 418kts
24-Sep-17 16:11 34.430924 -117.395591 292 30442ft 432kts
24-Sep-17 16:12 34.471599 -117.530042 292 27935ft 421kts
24-Sep-17 16:13 34.510895 -117.660391 292 25414ft 408kts
24-Sep-17 16:14 34.548899 -117.787010 292 24035ft 399kts
24-Sep-17 16:15 34.586879 -117.914088 292 24028ft 402kts
24-Sep-17 16:16 34.624929 -118.041200 295 23972ft 402kts
24-Sep-17 16:17 34.693621 -118.144127 313 21903ft 391kts
24-Sep-17 16:18 34.766406 -118.239442 314 19378ft 380kts
24-Sep-17 16:19 34.836210 -118.330600 314 17448ft 362kts
24-Sep-17 16:20 34.902652 -118.417528 314 15590ft 334kts
24-Sep-17 16:21 34.961930 -118.495169 313 13678ft 297kts
24-Sep-17 16:22 35.014940 -118.564935 312 12159ft 259kts
24-Sep-17 16:23 35.071028 -118.629183 317 11491ft 289kts
24-Sep-17 16:24 35.127658 -118.692919 316 10035ft 282kts
24-Sep-17 16:25 35.184489 -118.757006 316 8577ft 275kts
24-Sep-17 16:26 35.238788 -118.821407 315 6997ft 268kts
24-Sep-17 16:27 35.288942 -118.881733 315 5137ft 241kts
24-Sep-17 16:28 35.331576 -118.936077 316 3944ft 187kts
24-Sep-17 16:29 35.366864 -118.976712 313 2540ft 157kts
24-Sep-17 16:30 35.396440 -119.011564 317 1332ft 147kts
24-Sep-17 16:31 35.425544 -119.046225 315 567ft 142kts
24-Sep-17 16:32 35.445084 -119.069749 314 515ft 33kts
24-Sep-17 16:33 35.446564 -119.069362 133 517ft 3kts
24-Sep-17 16:34 35.442986 -119.065021 134 510ft 13kts
24-Sep-17 16:35 35.437897 -119.058865 135 505ft 36kts
24-Sep-17 16:36 35.436029 -119.055276 25 505ft 0kts
24-Sep-17 16:37 35.437590 -119.055679 54 508ft 0kts
24-Sep-17 16:38 35.437494 -119.055182 105 509ft 0kts
24-Sep-17 16:39 35.437494 -119.055182 105 509ft 0kts

Navigation Log

Ident Type
Flight plan parsing failed, navigation log unavailable